sensor_id;sensor_type;location;lat;lon;timestamp;P1;durP1;ratioP1;P2;durP2;ratioP2
8675;SDS011;4375;52.486;13.424;2022-10-22T00:00:53;30.03;;;13.50;;
8675;SDS011;4375;52.486;13.424;2022-10-22T00:03:19;32.93;;;13.90;;
8675;SDS011;4375;52.486;13.424;2022-10-22T00:05:46;28.77;;;14.27;;
8675;SDS011;4375;52.486;13.424;2022-10-22T00:08:12;29.57;;;12.50;;
8675;SDS011;4375;52.486;13.424;2022-10-22T00:10:38;27.53;;;13.50;;
8675;SDS011;4375;52.486;13.424;2022-10-22T00:13:04;28.00;;;12.80;;
8675;SDS011;4375;52.486;13.424;2022-10-22T00:15:30;29.03;;;11.87;;
8675;SDS011;4375;52.486;13.424;2022-10-22T00:17:55;28.00;;;13.43;;
8675;SDS011;4375;52.486;13.424;2022-10-22T00:20:21;29.60;;;12.60;;
8675;SDS011;4375;52.486;13.424;2022-10-22T00:22:47;29.03;;;12.83;;
8675;SDS011;4375;52.486;13.424;2022-10-22T00:25:13;31.80;;;13.83;;
8675;SDS011;4375;52.486;13.424;2022-10-22T00:27:39;26.40;;;11.60;;
8675;SDS011;4375;52.486;13.424;2022-10-22T00:30:05;28.10;;;12.77;;
8675;SDS011;4375;52.486;13.424;2022-10-22T00:32:31;28.80;;;12.77;;
8675;SDS011;4375;52.486;13.424;2022-10-22T00:34:56;28.30;;;12.53;;
8675;SDS011;4375;52.486;13.424;2022-10-22T00:37:22;30.53;;;12.63;;
8675;SDS011;4375;52.486;13.424;2022-10-22T00:39:48;31.80;;;13.73;;
8675;SDS011;4375;52.486;13.424;2022-10-22T00:42:15;30.23;;;12.70;;
8675;SDS011;4375;52.486;13.424;2022-10-22T00:47:32;28.63;;;11.97;;
8675;SDS011;4375;52.486;13.424;2022-10-22T00:50:15;31.17;;;13.93;;
8675;SDS011;4375;52.486;13.424;2022-10-22T00:52:45;31.60;;;13.73;;
8675;SDS011;4375;52.486;13.424;2022-10-22T00:55:12;30.50;;;13.57;;
8675;SDS011;4375;52.486;13.424;2022-10-22T00:57:38;29.87;;;12.43;;
8675;SDS011;4375;52.486;13.424;2022-10-22T01:00:05;26.03;;;12.40;;
8675;SDS011;4375;52.486;13.424;2022-10-22T01:02:31;30.07;;;12.77;;
8675;SDS011;4375;52.486;13.424;2022-10-22T01:04:57;30.80;;;13.37;;
8675;SDS011;4375;52.486;13.424;2022-10-22T01:07:23;30.03;;;11.70;;
8675;SDS011;4375;52.486;13.424;2022-10-22T01:12:50;33.13;;;13.57;;
8675;SDS011;4375;52.486;13.424;2022-10-22T01:15:26;29.07;;;11.93;;
8675;SDS011;4375;52.486;13.424;2022-10-22T01:18:04;27.40;;;13.10;;
8675;SDS011;4375;52.486;13.424;2022-10-22T01:26:47;26.60;;;11.40;;
8675;SDS011;4375;52.486;13.424;2022-10-22T01:29:24;31.80;;;13.40;;
8675;SDS011;4375;52.486;13.424;2022-10-22T01:32:01;30.70;;;12.43;;
8675;SDS011;4375;52.486;13.424;2022-10-22T01:34:31;27.10;;;11.30;;
8675;SDS011;4375;52.486;13.424;2022-10-22T01:36:58;37.03;;;14.27;;
8675;SDS011;4375;52.486;13.424;2022-10-22T01:39:25;27.13;;;11.70;;
8675;SDS011;4375;52.486;13.424;2022-10-22T01:41:54;32.47;;;13.90;;
8675;SDS011;4375;52.486;13.424;2022-10-22T01:44:27;29.27;;;12.17;;
8675;SDS011;4375;52.486;13.424;2022-10-22T01:47:47;28.40;;;12.77;;
8675;SDS011;4375;52.486;13.424;2022-10-22T01:55:04;30.13;;;12.27;;
8675;SDS011;4375;52.486;13.424;2022-10-22T01:57:42;30.47;;;12.00;;
8675;SDS011;4375;52.486;13.424;2022-10-22T02:00:09;27.07;;;11.80;;
8675;SDS011;4375;52.486;13.424;2022-10-22T02:03:38;26.10;;;11.67;;
8675;SDS011;4375;52.486;13.424;2022-10-22T02:05:39;28.47;;;12.57;;
8675;SDS011;4375;52.486;13.424;2022-10-22T02:08:16;27.10;;;12.50;;
8675;SDS011;4375;52.486;13.424;2022-10-22T02:10:47;30.13;;;13.03;;
8675;SDS011;4375;52.486;13.424;2022-10-22T02:13:16;30.47;;;12.83;;
8675;SDS011;4375;52.486;13.424;2022-10-22T02:15:46;26.07;;;12.00;;
8675;SDS011;4375;52.486;13.424;2022-10-22T02:18:14;27.80;;;12.47;;
8675;SDS011;4375;52.486;13.424;2022-10-22T02:20:42;28.23;;;11.63;;
8675;SDS011;4375;52.486;13.424;2022-10-22T02:23:08;28.87;;;11.87;;
8675;SDS011;4375;52.486;13.424;2022-10-22T02:25:35;26.93;;;11.47;;
8675;SDS011;4375;52.486;13.424;2022-10-22T02:30:50;28.47;;;12.33;;
8675;SDS011;4375;52.486;13.424;2022-10-22T02:33:20;28.83;;;12.23;;
8675;SDS011;4375;52.486;13.424;2022-10-22T02:35:49;30.67;;;13.10;;
8675;SDS011;4375;52.486;13.424;2022-10-22T02:38:17;32.30;;;11.77;;
8675;SDS011;4375;52.486;13.424;2022-10-22T02:40:43;26.17;;;11.13;;
8675;SDS011;4375;52.486;13.424;2022-10-22T02:43:09;26.10;;;11.20;;
8675;SDS011;4375;52.486;13.424;2022-10-22T02:45:35;29.70;;;12.60;;
8675;SDS011;4375;52.486;13.424;2022-10-22T02:48:01;32.27;;;11.60;;
8675;SDS011;4375;52.486;13.424;2022-10-22T02:50:27;28.90;;;12.53;;
8675;SDS011;4375;52.486;13.424;2022-10-22T02:52:53;28.33;;;11.70;;
8675;SDS011;4375;52.486;13.424;2022-10-22T02:55:18;28.77;;;12.00;;
8675;SDS011;4375;52.486;13.424;2022-10-22T02:57:44;28.60;;;11.23;;
8675;SDS011;4375;52.486;13.424;2022-10-22T03:00:10;28.33;;;12.00;;
8675;SDS011;4375;52.486;13.424;2022-10-22T03:02:36;27.43;;;12.50;;
8675;SDS011;4375;52.486;13.424;2022-10-22T03:05:02;28.97;;;12.00;;
8675;SDS011;4375;52.486;13.424;2022-10-22T03:07:28;25.70;;;11.30;;
8675;SDS011;4375;52.486;13.424;2022-10-22T03:09:54;30.23;;;11.33;;
8675;SDS011;4375;52.486;13.424;2022-10-22T03:12:19;28.97;;;11.50;;
8675;SDS011;4375;52.486;13.424;2022-10-22T03:14:45;27.63;;;12.30;;
8675;SDS011;4375;52.486;13.424;2022-10-22T03:17:11;29.17;;;11.57;;
8675;SDS011;4375;52.486;13.424;2022-10-22T03:19:36;28.07;;;11.73;;
8675;SDS011;4375;52.486;13.424;2022-10-22T03:22:03;29.50;;;11.10;;
8675;SDS011;4375;52.486;13.424;2022-10-22T03:24:35;26.37;;;11.47;;
8675;SDS011;4375;52.486;13.424;2022-10-22T03:27:03;28.00;;;11.73;;
8675;SDS011;4375;52.486;13.424;2022-10-22T03:29:29;32.27;;;11.93;;
8675;SDS011;4375;52.486;13.424;2022-10-22T03:31:57;25.40;;;11.03;;
8675;SDS011;4375;52.486;13.424;2022-10-22T03:34:26;30.83;;;11.93;;
8675;SDS011;4375;52.486;13.424;2022-10-22T03:36:51;29.13;;;12.10;;
8675;SDS011;4375;52.486;13.424;2022-10-22T03:39:17;29.20;;;11.37;;
8675;SDS011;4375;52.486;13.424;2022-10-22T03:41:45;28.10;;;11.53;;
8675;SDS011;4375;52.486;13.424;2022-10-22T03:44:13;27.60;;;11.67;;
8675;SDS011;4375;52.486;13.424;2022-10-22T03:46:40;29.70;;;11.53;;
8675;SDS011;4375;52.486;13.424;2022-10-22T03:49:06;28.37;;;11.43;;
8675;SDS011;4375;52.486;13.424;2022-10-22T03:51:32;26.03;;;10.70;;
8675;SDS011;4375;52.486;13.424;2022-10-22T03:53:58;30.57;;;11.80;;
8675;SDS011;4375;52.486;13.424;2022-10-22T03:56:24;30.00;;;11.00;;
8675;SDS011;4375;52.486;13.424;2022-10-22T03:58:50;28.77;;;10.67;;
8675;SDS011;4375;52.486;13.424;2022-10-22T04:01:15;25.63;;;10.50;;
8675;SDS011;4375;52.486;13.424;2022-10-22T04:03:41;37.43;;;11.07;;
8675;SDS011;4375;52.486;13.424;2022-10-22T04:06:08;26.03;;;10.70;;
8675;SDS011;4375;52.486;13.424;2022-10-22T04:08:35;26.93;;;11.07;;
8675;SDS011;4375;52.486;13.424;2022-10-22T04:11:03;26.97;;;11.43;;
8675;SDS011;4375;52.486;13.424;2022-10-22T04:13:29;25.27;;;11.30;;
8675;SDS011;4375;52.486;13.424;2022-10-22T04:15:55;27.87;;;11.70;;
8675;SDS011;4375;52.486;13.424;2022-10-22T04:18:30;26.87;;;11.20;;
8675;SDS011;4375;52.486;13.424;2022-10-22T04:20:55;27.73;;;10.50;;
8675;SDS011;4375;52.486;13.424;2022-10-22T04:23:21;26.50;;;11.30;;
8675;SDS011;4375;52.486;13.424;2022-10-22T04:25:49;25.70;;;11.67;;
8675;SDS011;4375;52.486;13.424;2022-10-22T04:28:21;28.00;;;12.50;;
8675;SDS011;4375;52.486;13.424;2022-10-22T04:30:46;27.03;;;11.50;;
8675;SDS011;4375;52.486;13.424;2022-10-22T04:33:12;31.50;;;12.07;;
8675;SDS011;4375;52.486;13.424;2022-10-22T04:35:38;26.30;;;10.97;;
8675;SDS011;4375;52.486;13.424;2022-10-22T04:38:04;28.30;;;11.20;;
8675;SDS011;4375;52.486;13.424;2022-10-22T04:40:29;26.93;;;11.10;;
8675;SDS011;4375;52.486;13.424;2022-10-22T04:42:55;28.80;;;11.30;;
8675;SDS011;4375;52.486;13.424;2022-10-22T04:45:21;26.30;;;11.40;;
8675;SDS011;4375;52.486;13.424;2022-10-22T04:47:46;28.30;;;12.23;;
8675;SDS011;4375;52.486;13.424;2022-10-22T04:50:12;27.27;;;11.70;;
8675;SDS011;4375;52.486;13.424;2022-10-22T04:52:38;27.97;;;11.60;;
8675;SDS011;4375;52.486;13.424;2022-10-22T04:55:04;30.20;;;12.00;;
8675;SDS011;4375;52.486;13.424;2022-10-22T04:57:30;30.23;;;12.40;;
8675;SDS011;4375;52.486;13.424;2022-10-22T04:59:56;30.93;;;12.47;;
8675;SDS011;4375;52.486;13.424;2022-10-22T05:02:22;34.13;;;12.60;;
8675;SDS011;4375;52.486;13.424;2022-10-22T05:04:47;26.47;;;11.03;;
8675;SDS011;4375;52.486;13.424;2022-10-22T05:07:13;27.87;;;11.67;;
8675;SDS011;4375;52.486;13.424;2022-10-22T05:09:39;30.20;;;11.40;;
8675;SDS011;4375;52.486;13.424;2022-10-22T05:12:04;29.90;;;12.27;;
8675;SDS011;4375;52.486;13.424;2022-10-22T05:14:30;31.40;;;13.03;;
8675;SDS011;4375;52.486;13.424;2022-10-22T05:16:56;31.53;;;13.17;;
8675;SDS011;4375;52.486;13.424;2022-10-22T05:19:23;33.13;;;12.67;;
8675;SDS011;4375;52.486;13.424;2022-10-22T05:21:51;32.80;;;12.70;;
8675;SDS011;4375;52.486;13.424;2022-10-22T05:24:18;31.73;;;12.27;;
8675;SDS011;4375;52.486;13.424;2022-10-22T05:26:44;29.53;;;12.17;;
8675;SDS011;4375;52.486;13.424;2022-10-22T05:29:09;32.27;;;12.33;;
8675;SDS011;4375;52.486;13.424;2022-10-22T05:31:35;28.30;;;11.20;;
8675;SDS011;4375;52.486;13.424;2022-10-22T05:34:00;30.23;;;12.10;;
8675;SDS011;4375;52.486;13.424;2022-10-22T05:36:26;29.23;;;13.10;;
8675;SDS011;4375;52.486;13.424;2022-10-22T05:38:52;30.80;;;12.57;;
8675;SDS011;4375;52.486;13.424;2022-10-22T05:41:19;29.13;;;12.53;;
8675;SDS011;4375;52.486;13.424;2022-10-22T05:43:46;31.67;;;12.87;;
8675;SDS011;4375;52.486;13.424;2022-10-22T05:46:16;32.30;;;13.83;;
8675;SDS011;4375;52.486;13.424;2022-10-22T05:48:47;31.93;;;12.37;;
8675;SDS011;4375;52.486;13.424;2022-10-22T05:51:13;29.67;;;11.80;;
8675;SDS011;4375;52.486;13.424;2022-10-22T05:53:40;27.43;;;11.77;;
8675;SDS011;4375;52.486;13.424;2022-10-22T05:56:08;29.10;;;12.40;;
8675;SDS011;4375;52.486;13.424;2022-10-22T05:58:36;32.03;;;11.40;;
8675;SDS011;4375;52.486;13.424;2022-10-22T06:01:03;29.43;;;12.53;;
8675;SDS011;4375;52.486;13.424;2022-10-22T06:03:36;30.80;;;12.17;;
8675;SDS011;4375;52.486;13.424;2022-10-22T06:06:03;28.50;;;11.70;;
8675;SDS011;4375;52.486;13.424;2022-10-22T06:08:43;31.67;;;12.83;;
8675;SDS011;4375;52.486;13.424;2022-10-22T06:11:13;26.90;;;10.87;;
8675;SDS011;4375;52.486;13.424;2022-10-22T06:13:39;31.77;;;13.27;;
8675;SDS011;4375;52.486;13.424;2022-10-22T06:16:04;27.23;;;11.07;;
8675;SDS011;4375;52.486;13.424;2022-10-22T06:18:31;28.27;;;12.60;;
8675;SDS011;4375;52.486;13.424;2022-10-22T06:21:07;31.10;;;13.47;;
8675;SDS011;4375;52.486;13.424;2022-10-22T06:23:37;34.50;;;13.73;;
8675;SDS011;4375;52.486;13.424;2022-10-22T06:26:04;29.40;;;12.03;;
8675;SDS011;4375;52.486;13.424;2022-10-22T06:28:33;30.40;;;12.60;;
8675;SDS011;4375;52.486;13.424;2022-10-22T06:31:00;33.07;;;13.27;;
8675;SDS011;4375;52.486;13.424;2022-10-22T06:33:35;27.77;;;12.40;;
8675;SDS011;4375;52.486;13.424;2022-10-22T06:36:16;30.57;;;12.83;;
8675;SDS011;4375;52.486;13.424;2022-10-22T06:38:44;26.97;;;12.00;;
8675;SDS011;4375;52.486;13.424;2022-10-22T06:41:10;28.80;;;11.90;;
8675;SDS011;4375;52.486;13.424;2022-10-22T06:43:38;33.53;;;13.57;;
8675;SDS011;4375;52.486;13.424;2022-10-22T06:46:05;31.37;;;12.30;;
8675;SDS011;4375;52.486;13.424;2022-10-22T06:48:33;29.13;;;13.47;;
8675;SDS011;4375;52.486;13.424;2022-10-22T06:51:02;31.73;;;13.00;;
8675;SDS011;4375;52.486;13.424;2022-10-22T06:53:28;28.93;;;13.03;;
8675;SDS011;4375;52.486;13.424;2022-10-22T06:55:55;32.50;;;11.90;;
8675;SDS011;4375;52.486;13.424;2022-10-22T06:58:20;29.10;;;12.00;;
8675;SDS011;4375;52.486;13.424;2022-10-22T07:00:46;31.13;;;13.90;;
8675;SDS011;4375;52.486;13.424;2022-10-22T07:03:12;30.43;;;13.63;;
8675;SDS011;4375;52.486;13.424;2022-10-22T07:05:39;27.60;;;12.50;;
8675;SDS011;4375;52.486;13.424;2022-10-22T07:08:05;30.10;;;13.17;;
8675;SDS011;4375;52.486;13.424;2022-10-22T07:10:31;30.13;;;12.20;;
8675;SDS011;4375;52.486;13.424;2022-10-22T07:12:56;30.90;;;12.43;;
8675;SDS011;4375;52.486;13.424;2022-10-22T07:15:22;28.53;;;11.93;;
8675;SDS011;4375;52.486;13.424;2022-10-22T07:17:48;28.13;;;11.90;;
8675;SDS011;4375;52.486;13.424;2022-10-22T07:20:15;27.77;;;12.27;;
8675;SDS011;4375;52.486;13.424;2022-10-22T07:22:43;27.30;;;11.93;;
8675;SDS011;4375;52.486;13.424;2022-10-22T07:25:09;28.20;;;12.50;;
8675;SDS011;4375;52.486;13.424;2022-10-22T07:27:35;28.73;;;12.10;;
8675;SDS011;4375;52.486;13.424;2022-10-22T07:30:01;35.00;;;11.70;;
8675;SDS011;4375;52.486;13.424;2022-10-22T07:32:27;25.87;;;10.83;;
8675;SDS011;4375;52.486;13.424;2022-10-22T07:34:52;28.13;;;11.40;;
8675;SDS011;4375;52.486;13.424;2022-10-22T07:37:18;30.03;;;11.70;;
8675;SDS011;4375;52.486;13.424;2022-10-22T07:39:46;31.77;;;11.60;;
8675;SDS011;4375;52.486;13.424;2022-10-22T07:42:12;28.97;;;13.40;;
8675;SDS011;4375;52.486;13.424;2022-10-22T07:44:58;28.10;;;11.93;;
8675;SDS011;4375;52.486;13.424;2022-10-22T07:47:24;26.20;;;11.03;;
8675;SDS011;4375;52.486;13.424;2022-10-22T07:49:49;28.20;;;11.13;;
8675;SDS011;4375;52.486;13.424;2022-10-22T07:52:15;24.43;;;10.20;;
8675;SDS011;4375;52.486;13.424;2022-10-22T07:54:40;25.83;;;11.17;;
8675;SDS011;4375;52.486;13.424;2022-10-22T07:57:06;28.27;;;11.30;;
8675;SDS011;4375;52.486;13.424;2022-10-22T07:59:32;26.27;;;10.90;;
8675;SDS011;4375;52.486;13.424;2022-10-22T08:01:57;28.10;;;11.30;;
8675;SDS011;4375;52.486;13.424;2022-10-22T08:04:23;30.40;;;10.43;;
8675;SDS011;4375;52.486;13.424;2022-10-22T08:06:49;25.57;;;11.10;;
8675;SDS011;4375;52.486;13.424;2022-10-22T08:09:14;25.83;;;10.63;;
8675;SDS011;4375;52.486;13.424;2022-10-22T08:11:40;26.20;;;10.80;;
8675;SDS011;4375;52.486;13.424;2022-10-22T08:14:06;26.40;;;11.10;;
8675;SDS011;4375;52.486;13.424;2022-10-22T08:16:31;25.77;;;11.53;;
8675;SDS011;4375;52.486;13.424;2022-10-22T08:18:57;26.97;;;11.10;;
8675;SDS011;4375;52.486;13.424;2022-10-22T08:21:23;27.70;;;10.80;;
8675;SDS011;4375;52.486;13.424;2022-10-22T08:23:48;24.60;;;11.20;;
8675;SDS011;4375;52.486;13.424;2022-10-22T08:26:14;23.77;;;10.20;;
8675;SDS011;4375;52.486;13.424;2022-10-22T08:28:40;28.30;;;11.30;;
8675;SDS011;4375;52.486;13.424;2022-10-22T08:31:06;30.37;;;12.63;;
8675;SDS011;4375;52.486;13.424;2022-10-22T08:33:32;23.93;;;10.60;;
8675;SDS011;4375;52.486;13.424;2022-10-22T08:36:00;24.83;;;10.50;;
8675;SDS011;4375;52.486;13.424;2022-10-22T08:38:26;28.43;;;10.87;;
8675;SDS011;4375;52.486;13.424;2022-10-22T08:40:53;25.60;;;10.70;;
8675;SDS011;4375;52.486;13.424;2022-10-22T08:48:42;27.23;;;11.23;;
8675;SDS011;4375;52.486;13.424;2022-10-22T08:51:14;31.67;;;10.50;;
8675;SDS011;4375;52.486;13.424;2022-10-22T08:56:26;30.30;;;12.40;;
8675;SDS011;4375;52.486;13.424;2022-10-22T08:59:03;26.77;;;12.10;;
8675;SDS011;4375;52.486;13.424;2022-10-22T09:01:48;28.17;;;12.03;;
8675;SDS011;4375;52.486;13.424;2022-10-22T09:04:18;25.60;;;11.30;;
8675;SDS011;4375;52.486;13.424;2022-10-22T09:06:53;26.27;;;10.70;;
8675;SDS011;4375;52.486;13.424;2022-10-22T09:09:21;25.93;;;10.60;;
8675;SDS011;4375;52.486;13.424;2022-10-22T09:11:53;30.60;;;13.00;;
8675;SDS011;4375;52.486;13.424;2022-10-22T09:14:22;25.73;;;11.47;;
8675;SDS011;4375;52.486;13.424;2022-10-22T09:17:11;29.97;;;11.57;;
8675;SDS011;4375;52.486;13.424;2022-10-22T09:25:17;29.50;;;11.50;;
8675;SDS011;4375;52.486;13.424;2022-10-22T09:27:49;26.13;;;10.60;;
8675;SDS011;4375;52.486;13.424;2022-10-22T09:30:20;25.90;;;10.37;;
8675;SDS011;4375;52.486;13.424;2022-10-22T09:33:32;25.60;;;11.00;;
8675;SDS011;4375;52.486;13.424;2022-10-22T09:35:34;27.23;;;11.10;;
8675;SDS011;4375;52.486;13.424;2022-10-22T09:38:15;30.70;;;11.30;;
8675;SDS011;4375;52.486;13.424;2022-10-22T09:40:46;26.90;;;10.73;;
8675;SDS011;4375;52.486;13.424;2022-10-22T09:43:13;27.80;;;10.47;;
8675;SDS011;4375;52.486;13.424;2022-10-22T09:45:40;25.30;;;10.30;;
8675;SDS011;4375;52.486;13.424;2022-10-22T09:48:49;25.83;;;10.10;;
8675;SDS011;4375;52.486;13.424;2022-10-22T09:53:47;26.20;;;9.93;;
8675;SDS011;4375;52.486;13.424;2022-10-22T09:59:02;28.23;;;10.50;;
8675;SDS011;4375;52.486;13.424;2022-10-22T10:01:30;31.53;;;11.07;;
8675;SDS011;4375;52.486;13.424;2022-10-22T10:04:06;22.70;;;10.07;;
8675;SDS011;4375;52.486;13.424;2022-10-22T10:06:34;29.73;;;10.63;;
8675;SDS011;4375;52.486;13.424;2022-10-22T10:09:05;23.30;;;9.17;;
8675;SDS011;4375;52.486;13.424;2022-10-22T10:11:44;24.47;;;9.87;;
8675;SDS011;4375;52.486;13.424;2022-10-22T10:14:26;26.10;;;10.77;;
8675;SDS011;4375;52.486;13.424;2022-10-22T10:19:58;22.40;;;9.33;;
8675;SDS011;4375;52.486;13.424;2022-10-22T10:25:47;26.17;;;10.37;;
8675;SDS011;4375;52.486;13.424;2022-10-22T10:33:58;26.80;;;10.60;;
8675;SDS011;4375;52.486;13.424;2022-10-22T10:42:54;24.10;;;9.20;;
8675;SDS011;4375;52.486;13.424;2022-10-22T10:48:58;24.43;;;9.87;;
8675;SDS011;4375;52.486;13.424;2022-10-22T10:53:53;27.10;;;10.27;;
8675;SDS011;4375;52.486;13.424;2022-10-22T11:07:46;25.93;;;10.20;;
8675;SDS011;4375;52.486;13.424;2022-10-22T11:13:11;28.63;;;11.70;;
8675;SDS011;4375;52.486;13.424;2022-10-22T11:15:59;24.93;;;10.87;;
8675;SDS011;4375;52.486;13.424;2022-10-22T11:21:06;30.10;;;12.50;;
8675;SDS011;4375;52.486;13.424;2022-10-22T11:23:43;32.43;;;12.50;;
8675;SDS011;4375;52.486;13.424;2022-10-22T11:26:24;28.10;;;12.53;;
8675;SDS011;4375;52.486;13.424;2022-10-22T11:28:56;26.77;;;11.27;;
8675;SDS011;4375;52.486;13.424;2022-10-22T11:31:24;29.67;;;12.33;;
8675;SDS011;4375;52.486;13.424;2022-10-22T11:34:02;31.30;;;13.23;;
8675;SDS011;4375;52.486;13.424;2022-10-22T11:36:50;33.43;;;13.50;;
8675;SDS011;4375;52.486;13.424;2022-10-22T11:42:11;27.00;;;12.23;;
8675;SDS011;4375;52.486;13.424;2022-10-22T11:45:04;27.50;;;12.70;;
8675;SDS011;4375;52.486;13.424;2022-10-22T11:50:22;32.60;;;14.03;;
8675;SDS011;4375;52.486;13.424;2022-10-22T11:58:25;27.83;;;11.20;;
8675;SDS011;4375;52.486;13.424;2022-10-22T12:03:40;25.10;;;11.00;;
8675;SDS011;4375;52.486;13.424;2022-10-22T12:19:34;25.83;;;9.47;;
8675;SDS011;4375;52.486;13.424;2022-10-22T12:24:42;27.47;;;8.00;;
8675;SDS011;4375;52.486;13.424;2022-10-22T12:27:26;27.00;;;7.40;;
8675;SDS011;4375;52.486;13.424;2022-10-22T12:30:00;27.03;;;8.57;;
8675;SDS011;4375;52.486;13.424;2022-10-22T12:32:35;23.77;;;8.10;;
8675;SDS011;4375;52.486;13.424;2022-10-22T12:35:06;22.87;;;7.67;;
8675;SDS011;4375;52.486;13.424;2022-10-22T12:37:35;28.33;;;7.50;;
8675;SDS011;4375;52.486;13.424;2022-10-22T12:40:14;24.77;;;7.77;;
8675;SDS011;4375;52.486;13.424;2022-10-22T12:42:58;23.17;;;6.53;;
8675;SDS011;4375;52.486;13.424;2022-10-22T12:45:26;18.93;;;5.27;;
8675;SDS011;4375;52.486;13.424;2022-10-22T12:47:57;17.03;;;5.03;;
8675;SDS011;4375;52.486;13.424;2022-10-22T12:50:32;21.30;;;5.07;;
8675;SDS011;4375;52.486;13.424;2022-10-22T12:53:03;23.20;;;5.03;;
8675;SDS011;4375;52.486;13.424;2022-10-22T12:55:30;17.17;;;4.73;;
8675;SDS011;4375;52.486;13.424;2022-10-22T12:57:57;17.90;;;4.60;;
8675;SDS011;4375;52.486;13.424;2022-10-22T13:00:27;18.03;;;4.50;;
8675;SDS011;4375;52.486;13.424;2022-10-22T13:02:58;17.80;;;4.70;;
8675;SDS011;4375;52.486;13.424;2022-10-22T13:05:31;18.70;;;3.90;;
8675;SDS011;4375;52.486;13.424;2022-10-22T13:08:16;17.83;;;3.93;;
8675;SDS011;4375;52.486;13.424;2022-10-22T13:10:49;19.90;;;4.40;;
8675;SDS011;4375;52.486;13.424;2022-10-22T13:13:29;20.90;;;3.80;;
8675;SDS011;4375;52.486;13.424;2022-10-22T13:16:11;18.07;;;3.93;;
8675;SDS011;4375;52.486;13.424;2022-10-22T13:18:41;16.63;;;3.70;;
8675;SDS011;4375;52.486;13.424;2022-10-22T13:24:19;17.90;;;3.07;;
8675;SDS011;4375;52.486;13.424;2022-10-22T13:26:50;19.23;;;3.93;;
8675;SDS011;4375;52.486;13.424;2022-10-22T13:29:18;20.43;;;3.43;;
8675;SDS011;4375;52.486;13.424;2022-10-22T13:31:48;21.67;;;3.30;;
8675;SDS011;4375;52.486;13.424;2022-10-22T13:34:17;17.50;;;3.07;;
8675;SDS011;4375;52.486;13.424;2022-10-22T13:36:48;17.33;;;3.37;;
8675;SDS011;4375;52.486;13.424;2022-10-22T13:39:17;16.80;;;3.50;;
8675;SDS011;4375;52.486;13.424;2022-10-22T13:41:44;17.10;;;2.93;;
8675;SDS011;4375;52.486;13.424;2022-10-22T13:44:10;20.87;;;3.00;;
8675;SDS011;4375;52.486;13.424;2022-10-22T13:46:35;18.97;;;3.33;;
8675;SDS011;4375;52.486;13.424;2022-10-22T13:49:06;20.00;;;3.07;;
8675;SDS011;4375;52.486;13.424;2022-10-22T13:51:45;16.80;;;3.10;;
8675;SDS011;4375;52.486;13.424;2022-10-22T13:54:21;17.60;;;3.33;;
8675;SDS011;4375;52.486;13.424;2022-10-22T13:56:48;16.00;;;2.90;;
8675;SDS011;4375;52.486;13.424;2022-10-22T13:59:13;19.53;;;3.30;;
8675;SDS011;4375;52.486;13.424;2022-10-22T14:01:39;17.50;;;4.07;;
8675;SDS011;4375;52.486;13.424;2022-10-22T14:04:06;18.30;;;2.90;;
8675;SDS011;4375;52.486;13.424;2022-10-22T14:06:37;18.97;;;3.07;;
8675;SDS011;4375;52.486;13.424;2022-10-22T14:09:09;21.90;;;3.27;;
8675;SDS011;4375;52.486;13.424;2022-10-22T14:11:37;17.57;;;2.97;;
8675;SDS011;4375;52.486;13.424;2022-10-22T14:14:03;18.40;;;2.90;;
8675;SDS011;4375;52.486;13.424;2022-10-22T14:16:32;23.63;;;3.33;;
8675;SDS011;4375;52.486;13.424;2022-10-22T14:18:59;19.07;;;2.97;;
8675;SDS011;4375;52.486;13.424;2022-10-22T14:21:27;17.43;;;3.03;;
8675;SDS011;4375;52.486;13.424;2022-10-22T14:23:57;21.63;;;3.10;;
8675;SDS011;4375;52.486;13.424;2022-10-22T14:26:27;19.83;;;3.37;;
8675;SDS011;4375;52.486;13.424;2022-10-22T14:28:57;16.37;;;3.10;;
8675;SDS011;4375;52.486;13.424;2022-10-22T14:31:23;19.10;;;3.30;;
8675;SDS011;4375;52.486;13.424;2022-10-22T14:33:48;20.03;;;2.50;;
8675;SDS011;4375;52.486;13.424;2022-10-22T14:36:15;19.43;;;2.73;;
8675;SDS011;4375;52.486;13.424;2022-10-22T14:38:42;15.60;;;2.60;;
8675;SDS011;4375;52.486;13.424;2022-10-22T14:41:21;15.10;;;3.00;;
8675;SDS011;4375;52.486;13.424;2022-10-22T14:43:49;19.90;;;3.00;;
8675;SDS011;4375;52.486;13.424;2022-10-22T14:46:18;18.10;;;3.00;;
8675;SDS011;4375;52.486;13.424;2022-10-22T14:48:46;16.70;;;2.90;;
8675;SDS011;4375;52.486;13.424;2022-10-22T14:51:13;23.10;;;3.23;;
8675;SDS011;4375;52.486;13.424;2022-10-22T14:53:41;20.43;;;3.30;;
8675;SDS011;4375;52.486;13.424;2022-10-22T14:56:08;21.93;;;2.87;;
8675;SDS011;4375;52.486;13.424;2022-10-22T14:58:36;17.40;;;3.00;;
8675;SDS011;4375;52.486;13.424;2022-10-22T15:01:02;21.80;;;3.93;;
8675;SDS011;4375;52.486;13.424;2022-10-22T15:03:28;20.73;;;3.10;;
8675;SDS011;4375;52.486;13.424;2022-10-22T15:05:55;20.77;;;3.20;;
8675;SDS011;4375;52.486;13.424;2022-10-22T15:08:21;18.40;;;3.30;;
8675;SDS011;4375;52.486;13.424;2022-10-22T15:10:56;19.77;;;3.00;;
8675;SDS011;4375;52.486;13.424;2022-10-22T15:13:40;18.90;;;3.07;;
8675;SDS011;4375;52.486;13.424;2022-10-22T15:16:07;16.40;;;2.97;;
8675;SDS011;4375;52.486;13.424;2022-10-22T15:18:34;16.83;;;3.00;;
8675;SDS011;4375;52.486;13.424;2022-10-22T15:21:01;17.83;;;3.07;;
8675;SDS011;4375;52.486;13.424;2022-10-22T15:23:29;16.53;;;2.70;;
8675;SDS011;4375;52.486;13.424;2022-10-22T15:25:55;20.30;;;3.53;;
8675;SDS011;4375;52.486;13.424;2022-10-22T15:28:21;22.13;;;3.10;;
8675;SDS011;4375;52.486;13.424;2022-10-22T15:30:52;16.50;;;2.33;;
8675;SDS011;4375;52.486;13.424;2022-10-22T15:33:22;17.30;;;2.77;;
8675;SDS011;4375;52.486;13.424;2022-10-22T15:35:48;19.03;;;2.87;;
8675;SDS011;4375;52.486;13.424;2022-10-22T15:38:14;18.17;;;2.97;;
8675;SDS011;4375;52.486;13.424;2022-10-22T15:40:39;17.60;;;2.67;;
8675;SDS011;4375;52.486;13.424;2022-10-22T15:43:05;17.63;;;3.07;;
8675;SDS011;4375;52.486;13.424;2022-10-22T15:45:31;19.30;;;2.60;;
8675;SDS011;4375;52.486;13.424;2022-10-22T15:47:56;17.83;;;3.00;;
8675;SDS011;4375;52.486;13.424;2022-10-22T15:50:22;19.27;;;3.70;;
8675;SDS011;4375;52.486;13.424;2022-10-22T15:52:48;18.63;;;3.27;;
8675;SDS011;4375;52.486;13.424;2022-10-22T15:55:13;22.13;;;3.97;;
8675;SDS011;4375;52.486;13.424;2022-10-22T15:57:39;17.57;;;3.63;;
8675;SDS011;4375;52.486;13.424;2022-10-22T16:00:05;23.90;;;3.40;;
8675;SDS011;4375;52.486;13.424;2022-10-22T16:02:31;19.87;;;4.10;;
8675;SDS011;4375;52.486;13.424;2022-10-22T16:04:57;20.50;;;3.33;;
8675;SDS011;4375;52.486;13.424;2022-10-22T16:07:23;17.97;;;3.50;;
8675;SDS011;4375;52.486;13.424;2022-10-22T16:09:49;18.40;;;3.80;;
8675;SDS011;4375;52.486;13.424;2022-10-22T16:12:18;22.03;;;4.40;;
8675;SDS011;4375;52.486;13.424;2022-10-22T16:14:44;18.80;;;4.23;;
8675;SDS011;4375;52.486;13.424;2022-10-22T16:17:09;23.00;;;4.60;;
8675;SDS011;4375;52.486;13.424;2022-10-22T16:19:35;23.40;;;4.60;;
8675;SDS011;4375;52.486;13.424;2022-10-22T16:22:01;22.43;;;4.47;;
8675;SDS011;4375;52.486;13.424;2022-10-22T16:24:27;19.30;;;4.43;;
8675;SDS011;4375;52.486;13.424;2022-10-22T16:26:53;18.10;;;4.50;;
8675;SDS011;4375;52.486;13.424;2022-10-22T16:29:19;18.30;;;4.23;;
8675;SDS011;4375;52.486;13.424;2022-10-22T16:31:44;19.53;;;4.70;;
8675;SDS011;4375;52.486;13.424;2022-10-22T16:34:11;22.30;;;4.97;;
8675;SDS011;4375;52.486;13.424;2022-10-22T16:36:37;17.97;;;4.60;;
8675;SDS011;4375;52.486;13.424;2022-10-22T16:39:03;27.27;;;5.20;;
8675;SDS011;4375;52.486;13.424;2022-10-22T16:41:29;22.70;;;5.57;;